sensor_id;sensor_type;location;lat;lon;timestamp;P1;durP1;ratioP1;P2;durP2;ratioP2
8952;SDS011;4511;50.890;8.054;2023-12-07T00:01:31;26.00;;;18.50;;
8952;SDS011;4511;50.890;8.054;2023-12-07T00:03:59;26.70;;;17.90;;
8952;SDS011;4511;50.890;8.054;2023-12-07T00:06:25;19.63;;;14.30;;
8952;SDS011;4511;50.890;8.054;2023-12-07T00:08:54;21.07;;;15.50;;
8952;SDS011;4511;50.890;8.054;2023-12-07T00:11:21;24.33;;;17.50;;
8952;SDS011;4511;50.890;8.054;2023-12-07T00:13:48;20.03;;;15.27;;
8952;SDS011;4511;50.890;8.054;2023-12-07T00:16:15;21.87;;;16.50;;
8952;SDS011;4511;50.890;8.054;2023-12-07T00:18:41;26.77;;;16.40;;
8952;SDS011;4511;50.890;8.054;2023-12-07T00:21:08;25.40;;;17.13;;
8952;SDS011;4511;50.890;8.054;2023-12-07T00:23:35;21.93;;;15.90;;
8952;SDS011;4511;50.890;8.054;2023-12-07T00:26:04;23.67;;;15.33;;
8952;SDS011;4511;50.890;8.054;2023-12-07T00:28:31;25.73;;;16.53;;
8952;SDS011;4511;50.890;8.054;2023-12-07T00:30:57;22.17;;;15.30;;
8952;SDS011;4511;50.890;8.054;2023-12-07T00:33:24;19.90;;;15.90;;
8952;SDS011;4511;50.890;8.054;2023-12-07T00:35:51;24.90;;;17.40;;
8952;SDS011;4511;50.890;8.054;2023-12-07T00:38:17;21.07;;;16.23;;
8952;SDS011;4511;50.890;8.054;2023-12-07T00:40:46;25.43;;;16.33;;
8952;SDS011;4511;50.890;8.054;2023-12-07T00:43:14;28.57;;;16.80;;
8952;SDS011;4511;50.890;8.054;2023-12-07T00:45:41;22.57;;;15.93;;
8952;SDS011;4511;50.890;8.054;2023-12-07T00:48:08;22.27;;;15.50;;
8952;SDS011;4511;50.890;8.054;2023-12-07T00:50:35;21.90;;;16.27;;
8952;SDS011;4511;50.890;8.054;2023-12-07T00:53:02;23.03;;;15.90;;
8952;SDS011;4511;50.890;8.054;2023-12-07T00:55:28;22.17;;;15.73;;
8952;SDS011;4511;50.890;8.054;2023-12-07T00:57:55;26.17;;;17.17;;
8952;SDS011;4511;50.890;8.054;2023-12-07T01:00:23;26.50;;;17.03;;
8952;SDS011;4511;50.890;8.054;2023-12-07T01:02:50;22.73;;;16.17;;
8952;SDS011;4511;50.890;8.054;2023-12-07T01:05:17;23.33;;;16.80;;
8952;SDS011;4511;50.890;8.054;2023-12-07T01:07:44;25.67;;;17.13;;
8952;SDS011;4511;50.890;8.054;2023-12-07T01:10:10;24.87;;;16.37;;
8952;SDS011;4511;50.890;8.054;2023-12-07T01:12:37;23.53;;;16.20;;
8952;SDS011;4511;50.890;8.054;2023-12-07T01:15:04;22.03;;;16.47;;
8952;SDS011;4511;50.890;8.054;2023-12-07T01:17:33;28.57;;;17.07;;
8952;SDS011;4511;50.890;8.054;2023-12-07T01:20:00;23.00;;;16.57;;
8952;SDS011;4511;50.890;8.054;2023-12-07T01:22:28;27.03;;;16.27;;
8952;SDS011;4511;50.890;8.054;2023-12-07T01:24:55;23.00;;;16.63;;
8952;SDS011;4511;50.890;8.054;2023-12-07T01:27:22;29.77;;;17.50;;
8952;SDS011;4511;50.890;8.054;2023-12-07T01:29:49;23.87;;;17.17;;
8952;SDS011;4511;50.890;8.054;2023-12-07T01:32:15;27.33;;;18.23;;
8952;SDS011;4511;50.890;8.054;2023-12-07T01:34:44;28.93;;;18.60;;
8952;SDS011;4511;50.890;8.054;2023-12-07T01:37:11;27.27;;;17.93;;
8952;SDS011;4511;50.890;8.054;2023-12-07T01:39:38;27.40;;;17.70;;
8952;SDS011;4511;50.890;8.054;2023-12-07T01:42:04;24.67;;;18.00;;
8952;SDS011;4511;50.890;8.054;2023-12-07T01:44:31;29.53;;;19.23;;
8952;SDS011;4511;50.890;8.054;2023-12-07T01:46:58;29.57;;;18.70;;
8952;SDS011;4511;50.890;8.054;2023-12-07T01:49:24;24.87;;;17.93;;
8952;SDS011;4511;50.890;8.054;2023-12-07T01:51:53;33.30;;;20.97;;
8952;SDS011;4511;50.890;8.054;2023-12-07T01:54:20;31.40;;;19.20;;
8952;SDS011;4511;50.890;8.054;2023-12-07T01:56:47;27.33;;;17.93;;
8952;SDS011;4511;50.890;8.054;2023-12-07T01:59:13;28.50;;;18.93;;
8952;SDS011;4511;50.890;8.054;2023-12-07T02:01:41;32.87;;;21.10;;
8952;SDS011;4511;50.890;8.054;2023-12-07T02:04:09;29.37;;;19.37;;
8952;SDS011;4511;50.890;8.054;2023-12-07T02:06:35;30.23;;;18.70;;
8952;SDS011;4511;50.890;8.054;2023-12-07T02:09:04;28.07;;;19.30;;
8952;SDS011;4511;50.890;8.054;2023-12-07T02:11:31;33.20;;;20.03;;
8952;SDS011;4511;50.890;8.054;2023-12-07T02:13:58;31.03;;;19.30;;
8952;SDS011;4511;50.890;8.054;2023-12-07T02:16:27;34.33;;;20.83;;
8952;SDS011;4511;50.890;8.054;2023-12-07T02:18:59;30.97;;;19.43;;
8952;SDS011;4511;50.890;8.054;2023-12-07T02:21:37;31.10;;;20.60;;
8952;SDS011;4511;50.890;8.054;2023-12-07T02:24:09;28.23;;;19.10;;
8952;SDS011;4511;50.890;8.054;2023-12-07T02:26:43;31.53;;;20.17;;
8952;SDS011;4511;50.890;8.054;2023-12-07T02:29:10;32.67;;;20.20;;
8952;SDS011;4511;50.890;8.054;2023-12-07T02:31:37;46.17;;;22.03;;
8952;SDS011;4511;50.890;8.054;2023-12-07T02:34:04;31.60;;;20.83;;
8952;SDS011;4511;50.890;8.054;2023-12-07T02:36:30;36.80;;;20.23;;
8952;SDS011;4511;50.890;8.054;2023-12-07T02:39:01;43.20;;;21.93;;
8952;SDS011;4511;50.890;8.054;2023-12-07T02:41:29;33.53;;;20.90;;
8952;SDS011;4511;50.890;8.054;2023-12-07T02:43:58;33.17;;;21.13;;
8952;SDS011;4511;50.890;8.054;2023-12-07T02:46:25;34.70;;;20.77;;
8952;SDS011;4511;50.890;8.054;2023-12-07T02:48:52;44.50;;;21.37;;
8952;SDS011;4511;50.890;8.054;2023-12-07T02:51:19;37.27;;;21.27;;
8952;SDS011;4511;50.890;8.054;2023-12-07T02:53:46;31.40;;;21.03;;
8952;SDS011;4511;50.890;8.054;2023-12-07T02:56:12;32.73;;;20.37;;
8952;SDS011;4511;50.890;8.054;2023-12-07T02:58:39;35.60;;;20.67;;
8952;SDS011;4511;50.890;8.054;2023-12-07T03:01:07;35.33;;;20.37;;
8952;SDS011;4511;50.890;8.054;2023-12-07T03:03:35;33.17;;;20.37;;
8952;SDS011;4511;50.890;8.054;2023-12-07T03:06:03;35.33;;;20.90;;
8952;SDS011;4511;50.890;8.054;2023-12-07T03:08:30;37.97;;;21.70;;
8952;SDS011;4511;50.890;8.054;2023-12-07T03:10:57;40.60;;;21.27;;
8952;SDS011;4511;50.890;8.054;2023-12-07T03:13:24;33.93;;;20.50;;
8952;SDS011;4511;50.890;8.054;2023-12-07T03:15:50;35.00;;;20.10;;
8952;SDS011;4511;50.890;8.054;2023-12-07T03:18:19;33.47;;;21.67;;
8952;SDS011;4511;50.890;8.054;2023-12-07T03:20:45;27.63;;;20.00;;
8952;SDS011;4511;50.890;8.054;2023-12-07T03:23:12;32.40;;;21.10;;
8952;SDS011;4511;50.890;8.054;2023-12-07T03:25:39;38.20;;;20.97;;
8952;SDS011;4511;50.890;8.054;2023-12-07T03:28:05;31.83;;;20.87;;
8952;SDS011;4511;50.890;8.054;2023-12-07T03:30:32;44.70;;;20.93;;
8952;SDS011;4511;50.890;8.054;2023-12-07T03:32:59;37.97;;;22.03;;
8952;SDS011;4511;50.890;8.054;2023-12-07T03:35:27;34.13;;;21.40;;
8952;SDS011;4511;50.890;8.054;2023-12-07T03:37:53;34.20;;;20.80;;
8952;SDS011;4511;50.890;8.054;2023-12-07T03:40:20;33.73;;;22.10;;
8952;SDS011;4511;50.890;8.054;2023-12-07T03:42:47;34.33;;;21.00;;
8952;SDS011;4511;50.890;8.054;2023-12-07T03:45:13;36.07;;;21.63;;
8952;SDS011;4511;50.890;8.054;2023-12-07T03:47:40;46.47;;;23.83;;
8952;SDS011;4511;50.890;8.054;2023-12-07T03:50:07;51.83;;;25.73;;
8952;SDS011;4511;50.890;8.054;2023-12-07T03:52:35;52.30;;;24.43;;
8952;SDS011;4511;50.890;8.054;2023-12-07T03:55:02;44.63;;;23.60;;
8952;SDS011;4511;50.890;8.054;2023-12-07T03:57:29;34.87;;;20.03;;
8952;SDS011;4511;50.890;8.054;2023-12-07T03:59:56;34.27;;;20.03;;
8952;SDS011;4511;50.890;8.054;2023-12-07T04:02:22;41.63;;;20.87;;
8952;SDS011;4511;50.890;8.054;2023-12-07T04:04:49;41.07;;;20.07;;
8952;SDS011;4511;50.890;8.054;2023-12-07T04:07:16;33.60;;;19.40;;
8952;SDS011;4511;50.890;8.054;2023-12-07T04:09:44;44.67;;;22.10;;
8952;SDS011;4511;50.890;8.054;2023-12-07T04:12:11;43.40;;;20.43;;
8952;SDS011;4511;50.890;8.054;2023-12-07T04:14:37;47.90;;;21.30;;
8952;SDS011;4511;50.890;8.054;2023-12-07T04:17:04;40.63;;;20.67;;
8952;SDS011;4511;50.890;8.054;2023-12-07T04:19:31;31.13;;;18.10;;
8952;SDS011;4511;50.890;8.054;2023-12-07T04:21:58;31.33;;;19.07;;
8952;SDS011;4511;50.890;8.054;2023-12-07T04:24:24;32.87;;;20.03;;
8952;SDS011;4511;50.890;8.054;2023-12-07T04:26:52;33.03;;;18.37;;
8952;SDS011;4511;50.890;8.054;2023-12-07T04:29:19;43.33;;;22.13;;
8952;SDS011;4511;50.890;8.054;2023-12-07T04:31:46;38.07;;;21.17;;
8952;SDS011;4511;50.890;8.054;2023-12-07T04:34:12;41.00;;;22.00;;
8952;SDS011;4511;50.890;8.054;2023-12-07T04:36:39;41.37;;;20.93;;
8952;SDS011;4511;50.890;8.054;2023-12-07T04:39:06;54.77;;;22.73;;
8952;SDS011;4511;50.890;8.054;2023-12-07T04:41:33;39.57;;;21.17;;
8952;SDS011;4511;50.890;8.054;2023-12-07T04:44:01;36.60;;;20.57;;
8952;SDS011;4511;50.890;8.054;2023-12-07T04:46:28;40.47;;;21.33;;
8952;SDS011;4511;50.890;8.054;2023-12-07T04:48:54;41.63;;;20.93;;
8952;SDS011;4511;50.890;8.054;2023-12-07T04:51:21;51.50;;;22.23;;
8952;SDS011;4511;50.890;8.054;2023-12-07T04:53:48;37.07;;;21.17;;
8952;SDS011;4511;50.890;8.054;2023-12-07T04:56:15;43.13;;;22.17;;
8952;SDS011;4511;50.890;8.054;2023-12-07T04:58:41;43.37;;;22.27;;
8952;SDS011;4511;50.890;8.054;2023-12-07T05:01:09;41.90;;;21.70;;
8952;SDS011;4511;50.890;8.054;2023-12-07T05:03:36;42.93;;;22.00;;
8952;SDS011;4511;50.890;8.054;2023-12-07T05:06:03;39.57;;;21.97;;
8952;SDS011;4511;50.890;8.054;2023-12-07T05:08:30;30.90;;;20.03;;
8952;SDS011;4511;50.890;8.054;2023-12-07T05:10:57;33.30;;;19.67;;
8952;SDS011;4511;50.890;8.054;2023-12-07T05:13:24;45.57;;;22.20;;
8952;SDS011;4511;50.890;8.054;2023-12-07T05:15:50;41.80;;;21.30;;
8952;SDS011;4511;50.890;8.054;2023-12-07T05:18:18;44.47;;;21.53;;
8952;SDS011;4511;50.890;8.054;2023-12-07T05:20:45;34.90;;;20.20;;
8952;SDS011;4511;50.890;8.054;2023-12-07T05:23:12;32.47;;;19.67;;
8952;SDS011;4511;50.890;8.054;2023-12-07T05:25:39;32.37;;;20.63;;
8952;SDS011;4511;50.890;8.054;2023-12-07T05:28:05;46.73;;;21.30;;
8952;SDS011;4511;50.890;8.054;2023-12-07T05:30:32;152.70;;;23.90;;
8952;SDS011;4511;50.890;8.054;2023-12-07T05:32:59;155.80;;;23.40;;
8952;SDS011;4511;50.890;8.054;2023-12-07T05:35:27;61.20;;;21.73;;
8952;SDS011;4511;50.890;8.054;2023-12-07T05:37:54;98.80;;;24.20;;
8952;SDS011;4511;50.890;8.054;2023-12-07T05:40:20;43.67;;;21.73;;
8952;SDS011;4511;50.890;8.054;2023-12-07T05:42:49;40.63;;;22.10;;
8952;SDS011;4511;50.890;8.054;2023-12-07T05:45:16;45.70;;;23.60;;
8952;SDS011;4511;50.890;8.054;2023-12-07T05:47:42;39.10;;;21.60;;
8952;SDS011;4511;50.890;8.054;2023-12-07T05:50:09;51.17;;;22.37;;
8952;SDS011;4511;50.890;8.054;2023-12-07T05:52:37;36.53;;;20.80;;
8952;SDS011;4511;50.890;8.054;2023-12-07T05:55:04;47.40;;;21.20;;
8952;SDS011;4511;50.890;8.054;2023-12-07T05:57:32;39.83;;;20.77;;
8952;SDS011;4511;50.890;8.054;2023-12-07T05:59:58;49.70;;;22.20;;
8952;SDS011;4511;50.890;8.054;2023-12-07T06:02:25;43.60;;;21.40;;
8952;SDS011;4511;50.890;8.054;2023-12-07T06:04:52;54.33;;;22.80;;
8952;SDS011;4511;50.890;8.054;2023-12-07T06:07:19;152.37;;;27.67;;
8952;SDS011;4511;50.890;8.054;2023-12-07T06:09:47;37.93;;;20.73;;
8952;SDS011;4511;50.890;8.054;2023-12-07T06:12:14;44.53;;;21.80;;
8952;SDS011;4511;50.890;8.054;2023-12-07T06:14:41;51.97;;;22.53;;
8952;SDS011;4511;50.890;8.054;2023-12-07T06:17:08;65.60;;;22.23;;
8952;SDS011;4511;50.890;8.054;2023-12-07T06:19:34;47.33;;;22.60;;
8952;SDS011;4511;50.890;8.054;2023-12-07T06:22:01;42.30;;;21.70;;
8952;SDS011;4511;50.890;8.054;2023-12-07T06:24:28;47.23;;;21.67;;
8952;SDS011;4511;50.890;8.054;2023-12-07T06:26:56;49.53;;;21.40;;
8952;SDS011;4511;50.890;8.054;2023-12-07T06:29:22;34.40;;;19.90;;
8952;SDS011;4511;50.890;8.054;2023-12-07T06:31:49;34.50;;;19.63;;
8952;SDS011;4511;50.890;8.054;2023-12-07T06:34:16;33.53;;;19.60;;
8952;SDS011;4511;50.890;8.054;2023-12-07T06:36:42;34.67;;;20.03;;
8952;SDS011;4511;50.890;8.054;2023-12-07T06:39:09;49.23;;;21.67;;
8952;SDS011;4511;50.890;8.054;2023-12-07T06:41:36;38.77;;;21.07;;
8952;SDS011;4511;50.890;8.054;2023-12-07T06:44:04;37.17;;;21.77;;
8952;SDS011;4511;50.890;8.054;2023-12-07T06:46:32;42.30;;;21.57;;
8952;SDS011;4511;50.890;8.054;2023-12-07T06:48:58;37.70;;;21.07;;
8952;SDS011;4511;50.890;8.054;2023-12-07T06:51:25;43.93;;;21.33;;
8952;SDS011;4511;50.890;8.054;2023-12-07T06:53:52;36.27;;;21.33;;
8952;SDS011;4511;50.890;8.054;2023-12-07T06:56:18;46.17;;;23.17;;
8952;SDS011;4511;50.890;8.054;2023-12-07T06:58:45;55.00;;;24.13;;
8952;SDS011;4511;50.890;8.054;2023-12-07T07:01:14;47.03;;;22.33;;
8952;SDS011;4511;50.890;8.054;2023-12-07T07:03:41;47.07;;;21.97;;
8952;SDS011;4511;50.890;8.054;2023-12-07T07:06:07;52.57;;;23.50;;
8952;SDS011;4511;50.890;8.054;2023-12-07T07:08:34;44.80;;;22.77;;
8952;SDS011;4511;50.890;8.054;2023-12-07T07:11:01;39.97;;;20.63;;
8952;SDS011;4511;50.890;8.054;2023-12-07T07:13:28;37.07;;;20.17;;
8952;SDS011;4511;50.890;8.054;2023-12-07T07:15:55;39.83;;;21.27;;
8952;SDS011;4511;50.890;8.054;2023-12-07T07:18:23;57.93;;;25.23;;
8952;SDS011;4511;50.890;8.054;2023-12-07T07:20:50;47.97;;;23.87;;
8952;SDS011;4511;50.890;8.054;2023-12-07T07:23:17;45.93;;;23.20;;
8952;SDS011;4511;50.890;8.054;2023-12-07T07:25:44;55.73;;;24.07;;
8952;SDS011;4511;50.890;8.054;2023-12-07T07:28:10;170.13;;;31.57;;
8952;SDS011;4511;50.890;8.054;2023-12-07T07:30:37;75.27;;;25.80;;
8952;SDS011;4511;50.890;8.054;2023-12-07T07:33:04;50.63;;;24.83;;
8952;SDS011;4511;50.890;8.054;2023-12-07T07:35:32;55.90;;;24.13;;
8952;SDS011;4511;50.890;8.054;2023-12-07T07:37:59;38.60;;;22.93;;
8952;SDS011;4511;50.890;8.054;2023-12-07T07:40:26;39.07;;;21.87;;
8952;SDS011;4511;50.890;8.054;2023-12-07T07:42:52;33.80;;;20.53;;
8952;SDS011;4511;50.890;8.054;2023-12-07T07:45:19;29.63;;;18.50;;
8952;SDS011;4511;50.890;8.054;2023-12-07T07:47:46;25.63;;;16.53;;
8952;SDS011;4511;50.890;8.054;2023-12-07T07:50:13;27.53;;;17.43;;
8952;SDS011;4511;50.890;8.054;2023-12-07T07:52:41;29.10;;;17.37;;
8952;SDS011;4511;50.890;8.054;2023-12-07T07:55:10;32.53;;;18.97;;
8952;SDS011;4511;50.890;8.054;2023-12-07T07:57:37;36.20;;;19.83;;
8952;SDS011;4511;50.890;8.054;2023-12-07T08:00:04;29.07;;;18.40;;
8952;SDS011;4511;50.890;8.054;2023-12-07T08:02:33;28.63;;;18.50;;
8952;SDS011;4511;50.890;8.054;2023-12-07T08:05:01;26.60;;;16.67;;
8952;SDS011;4511;50.890;8.054;2023-12-07T08:07:28;23.43;;;15.97;;
8952;SDS011;4511;50.890;8.054;2023-12-07T08:09:56;21.57;;;16.17;;
8952;SDS011;4511;50.890;8.054;2023-12-07T08:12:22;24.27;;;16.43;;
8952;SDS011;4511;50.890;8.054;2023-12-07T08:14:49;24.50;;;17.17;;
8952;SDS011;4511;50.890;8.054;2023-12-07T08:17:16;25.50;;;17.37;;
8952;SDS011;4511;50.890;8.054;2023-12-07T08:19:44;28.97;;;18.00;;
8952;SDS011;4511;50.890;8.054;2023-12-07T08:22:10;27.53;;;17.57;;
8952;SDS011;4511;50.890;8.054;2023-12-07T08:24:38;25.23;;;16.97;;
8952;SDS011;4511;50.890;8.054;2023-12-07T08:27:06;26.23;;;17.13;;
8952;SDS011;4511;50.890;8.054;2023-12-07T08:29:33;22.13;;;15.87;;
8952;SDS011;4511;50.890;8.054;2023-12-07T08:32:00;19.70;;;15.07;;
8952;SDS011;4511;50.890;8.054;2023-12-07T08:34:27;21.27;;;15.40;;
8952;SDS011;4511;50.890;8.054;2023-12-07T08:36:54;19.70;;;14.83;;
8952;SDS011;4511;50.890;8.054;2023-12-07T08:39:20;21.17;;;14.70;;
8952;SDS011;4511;50.890;8.054;2023-12-07T08:41:47;19.13;;;14.80;;
8952;SDS011;4511;50.890;8.054;2023-12-07T08:44:15;23.00;;;15.37;;
8952;SDS011;4511;50.890;8.054;2023-12-07T08:46:42;22.50;;;14.13;;
8952;SDS011;4511;50.890;8.054;2023-12-07T08:49:10;21.60;;;14.30;;
8952;SDS011;4511;50.890;8.054;2023-12-07T08:51:36;17.10;;;13.10;;
8952;SDS011;4511;50.890;8.054;2023-12-07T08:54:03;15.87;;;12.40;;
8952;SDS011;4511;50.890;8.054;2023-12-07T08:56:30;15.43;;;12.43;;
8952;SDS011;4511;50.890;8.054;2023-12-07T08:58:57;16.37;;;12.27;;
8952;SDS011;4511;50.890;8.054;2023-12-07T09:01:26;17.50;;;13.03;;
8952;SDS011;4511;50.890;8.054;2023-12-07T09:03:52;18.87;;;13.37;;
8952;SDS011;4511;50.890;8.054;2023-12-07T09:06:19;16.77;;;12.40;;
8952;SDS011;4511;50.890;8.054;2023-12-07T09:08:46;18.67;;;13.20;;
8952;SDS011;4511;50.890;8.054;2023-12-07T09:11:12;17.80;;;13.40;;
8952;SDS011;4511;50.890;8.054;2023-12-07T09:13:39;18.20;;;13.67;;
8952;SDS011;4511;50.890;8.054;2023-12-07T09:16:06;17.97;;;13.40;;
8952;SDS011;4511;50.890;8.054;2023-12-07T09:18:34;19.27;;;13.60;;
8952;SDS011;4511;50.890;8.054;2023-12-07T09:21:01;18.17;;;13.07;;
8952;SDS011;4511;50.890;8.054;2023-12-07T09:23:28;18.83;;;13.67;;
8952;SDS011;4511;50.890;8.054;2023-12-07T09:25:54;13.87;;;11.30;;
8952;SDS011;4511;50.890;8.054;2023-12-07T09:28:21;14.60;;;11.10;;
8952;SDS011;4511;50.890;8.054;2023-12-07T09:30:48;14.63;;;9.70;;
8952;SDS011;4511;50.890;8.054;2023-12-07T09:33:15;14.47;;;10.83;;
8952;SDS011;4511;50.890;8.054;2023-12-07T09:35:44;13.70;;;11.33;;
8952;SDS011;4511;50.890;8.054;2023-12-07T09:38:10;15.63;;;11.43;;
8952;SDS011;4511;50.890;8.054;2023-12-07T09:40:37;14.27;;;10.97;;
8952;SDS011;4511;50.890;8.054;2023-12-07T09:43:04;12.73;;;11.10;;
8952;SDS011;4511;50.890;8.054;2023-12-07T09:45:30;11.53;;;9.30;;
8952;SDS011;4511;50.890;8.054;2023-12-07T09:47:57;10.47;;;8.90;;
8952;SDS011;4511;50.890;8.054;2023-12-07T09:50:26;13.63;;;9.20;;
8952;SDS011;4511;50.890;8.054;2023-12-07T09:52:56;8.97;;;7.80;;
8952;SDS011;4511;50.890;8.054;2023-12-07T09:55:24;11.57;;;8.50;;
8952;SDS011;4511;50.890;8.054;2023-12-07T09:57:51;9.90;;;7.90;;
8952;SDS011;4511;50.890;8.054;2023-12-07T10:00:19;9.20;;;7.40;;
8952;SDS011;4511;50.890;8.054;2023-12-07T10:02:46;10.07;;;8.13;;
8952;SDS011;4511;50.890;8.054;2023-12-07T10:05:13;9.93;;;8.40;;
8952;SDS011;4511;50.890;8.054;2023-12-07T10:07:42;12.63;;;8.77;;
8952;SDS011;4511;50.890;8.054;2023-12-07T10:10:13;9.57;;;7.90;;
8952;SDS011;4511;50.890;8.054;2023-12-07T10:12:44;8.50;;;7.67;;
8952;SDS011;4511;50.890;8.054;2023-12-07T10:15:12;9.07;;;8.10;;
8952;SDS011;4511;50.890;8.054;2023-12-07T10:17:43;11.10;;;8.33;;
8952;SDS011;4511;50.890;8.054;2023-12-07T10:20:13;11.47;;;8.03;;
8952;SDS011;4511;50.890;8.054;2023-12-07T10:22:40;9.37;;;7.83;;
8952;SDS011;4511;50.890;8.054;2023-12-07T10:25:07;10.20;;;7.93;;
8952;SDS011;4511;50.890;8.054;2023-12-07T10:27:37;9.77;;;8.43;;
8952;SDS011;4511;50.890;8.054;2023-12-07T10:30:06;8.87;;;7.90;;
8952;SDS011;4511;50.890;8.054;2023-12-07T10:32:35;9.30;;;7.90;;
8952;SDS011;4511;50.890;8.054;2023-12-07T10:35:04;11.03;;;8.43;;
8952;SDS011;4511;50.890;8.054;2023-12-07T10:37:32;11.80;;;8.57;;
8952;SDS011;4511;50.890;8.054;2023-12-07T10:39:59;10.27;;;8.33;;
8952;SDS011;4511;50.890;8.054;2023-12-07T10:42:26;9.87;;;8.73;;
8952;SDS011;4511;50.890;8.054;2023-12-07T10:45:01;11.40;;;8.60;;
8952;SDS011;4511;50.890;8.054;2023-12-07T10:47:30;14.23;;;10.60;;
8952;SDS011;4511;50.890;8.054;2023-12-07T10:50:00;17.10;;;13.97;;
8952;SDS011;4511;50.890;8.054;2023-12-07T10:52:31;18.23;;;14.40;;
8952;SDS011;4511;50.890;8.054;2023-12-07T10:55:02;19.00;;;14.53;;
8952;SDS011;4511;50.890;8.054;2023-12-07T10:57:29;20.43;;;13.63;;
8952;SDS011;4511;50.890;8.054;2023-12-07T10:59:59;16.83;;;12.50;;
8952;SDS011;4511;50.890;8.054;2023-12-07T11:02:26;14.70;;;12.43;;
8952;SDS011;4511;50.890;8.054;2023-12-07T11:04:54;14.07;;;11.17;;
8952;SDS011;4511;50.890;8.054;2023-12-07T11:07:23;14.80;;;11.33;;
8952;SDS011;4511;50.890;8.054;2023-12-07T11:09:57;14.13;;;11.27;;
8952;SDS011;4511;50.890;8.054;2023-12-07T11:12:30;13.10;;;10.53;;
8952;SDS011;4511;50.890;8.054;2023-12-07T11:15:02;13.63;;;11.20;;
8952;SDS011;4511;50.890;8.054;2023-12-07T11:17:42;14.33;;;11.73;;
8952;SDS011;4511;50.890;8.054;2023-12-07T11:20:18;13.77;;;10.83;;
8952;SDS011;4511;50.890;8.054;2023-12-07T11:22:45;13.40;;;11.10;;
8952;SDS011;4511;50.890;8.054;2023-12-07T11:25:14;13.03;;;10.73;;
8952;SDS011;4511;50.890;8.054;2023-12-07T11:27:43;11.93;;;9.97;;
8952;SDS011;4511;50.890;8.054;2023-12-07T11:30:14;11.63;;;9.30;;
8952;SDS011;4511;50.890;8.054;2023-12-07T11:32:42;10.43;;;8.87;;
8952;SDS011;4511;50.890;8.054;2023-12-07T11:35:14;12.53;;;9.27;;
8952;SDS011;4511;50.890;8.054;2023-12-07T11:40:31;9.50;;;8.47;;
8952;SDS011;4511;50.890;8.054;2023-12-07T11:42:59;11.23;;;8.90;;
8952;SDS011;4511;50.890;8.054;2023-12-07T11:45:37;10.43;;;8.40;;
8952;SDS011;4511;50.890;8.054;2023-12-07T11:48:09;11.17;;;9.13;;
8952;SDS011;4511;50.890;8.054;2023-12-07T11:50:36;10.53;;;9.00;;
8952;SDS011;4511;50.890;8.054;2023-12-07T11:53:21;9.93;;;8.93;;
8952;SDS011;4511;50.890;8.054;2023-12-07T11:55:49;10.37;;;9.07;;
8952;SDS011;4511;50.890;8.054;2023-12-07T11:58:15;10.43;;;8.67;;
8952;SDS011;4511;50.890;8.054;2023-12-07T12:00:44;9.50;;;8.20;;
8952;SDS011;4511;50.890;8.054;2023-12-07T12:03:12;11.57;;;8.17;;
8952;SDS011;4511;50.890;8.054;2023-12-07T12:05:40;10.83;;;8.60;;
8952;SDS011;4511;50.890;8.054;2023-12-07T12:08:08;9.67;;;8.67;;
8952;SDS011;4511;50.890;8.054;2023-12-07T12:10:34;11.73;;;8.93;;
8952;SDS011;4511;50.890;8.054;2023-12-07T12:13:01;9.40;;;8.50;;
8952;SDS011;4511;50.890;8.054;2023-12-07T12:15:29;9.87;;;7.90;;
8952;SDS011;4511;50.890;8.054;2023-12-07T12:17:58;9.07;;;8.10;;
8952;SDS011;4511;50.890;8.054;2023-12-07T12:20:25;9.10;;;8.13;;
8952;SDS011;4511;50.890;8.054;2023-12-07T12:22:52;10.70;;;8.10;;
8952;SDS011;4511;50.890;8.054;2023-12-07T12:25:20;8.97;;;7.87;;
8952;SDS011;4511;50.890;8.054;2023-12-07T12:27:47;10.07;;;8.20;;
8952;SDS011;4511;50.890;8.054;2023-12-07T12:30:15;9.90;;;8.23;;
8952;SDS011;4511;50.890;8.054;2023-12-07T12:32:43;9.67;;;7.30;;
8952;SDS011;4511;50.890;8.054;2023-12-07T12:35:12;8.67;;;7.77;;
8952;SDS011;4511;50.890;8.054;2023-12-07T12:37:40;9.30;;;7.87;;
8952;SDS011;4511;50.890;8.054;2023-12-07T12:40:08;10.63;;;7.53;;
8952;SDS011;4511;50.890;8.054;2023-12-07T12:42:36;10.83;;;8.03;;
8952;SDS011;4511;50.890;8.054;2023-12-07T12:45:04;10.63;;;7.80;;
8952;SDS011;4511;50.890;8.054;2023-12-07T12:47:32;18.33;;;8.53;;
8952;SDS011;4511;50.890;8.054;2023-12-07T12:49:59;10.63;;;8.40;;
8952;SDS011;4511;50.890;8.054;2023-12-07T12:52:27;10.13;;;8.20;;
8952;SDS011;4511;50.890;8.054;2023-12-07T12:54:55;11.97;;;8.77;;
8952;SDS011;4511;50.890;8.054;2023-12-07T12:57:21;9.40;;;8.40;;
8952;SDS011;4511;50.890;8.054;2023-12-07T12:59:49;13.07;;;9.47;;
8952;SDS011;4511;50.890;8.054;2023-12-07T13:02:17;10.60;;;8.43;;
8952;SDS011;4511;50.890;8.054;2023-12-07T13:04:44;12.20;;;9.17;;
8952;SDS011;4511;50.890;8.054;2023-12-07T13:07:11;10.43;;;8.90;;
8952;SDS011;4511;50.890;8.054;2023-12-07T13:09:39;12.50;;;9.73;;
8952;SDS011;4511;50.890;8.054;2023-12-07T13:12:08;11.20;;;9.43;;
8952;SDS011;4511;50.890;8.054;2023-12-07T13:14:35;10.80;;;8.87;;
8952;SDS011;4511;50.890;8.054;2023-12-07T13:17:03;12.23;;;9.60;;
8952;SDS011;4511;50.890;8.054;2023-12-07T13:19:30;13.57;;;10.17;;
8952;SDS011;4511;50.890;8.054;2023-12-07T13:21:56;12.03;;;9.60;;
8952;SDS011;4511;50.890;8.054;2023-12-07T13:24:23;10.97;;;8.70;;
8952;SDS011;4511;50.890;8.054;2023-12-07T13:26:51;10.03;;;8.73;;
8952;SDS011;4511;50.890;8.054;2023-12-07T13:29:18;14.03;;;8.97;;
8952;SDS011;4511;50.890;8.054;2023-12-07T13:31:45;11.80;;;8.57;;
8952;SDS011;4511;50.890;8.054;2023-12-07T13:34:11;11.37;;;9.13;;
8952;SDS011;4511;50.890;8.054;2023-12-07T13:36:39;13.27;;;9.33;;
8952;SDS011;4511;50.890;8.054;2023-12-07T13:39:05;10.37;;;8.83;;
8952;SDS011;4511;50.890;8.054;2023-12-07T13:41:33;10.67;;;8.63;;
8952;SDS011;4511;50.890;8.054;2023-12-07T13:44:01;9.67;;;8.20;;
8952;SDS011;4511;50.890;8.054;2023-12-07T13:46:29;12.27;;;9.73;;
8952;SDS011;4511;50.890;8.054;2023-12-07T13:48:56;10.87;;;8.37;;
8952;SDS011;4511;50.890;8.054;2023-12-07T13:51:23;9.67;;;8.47;;
8952;SDS011;4511;50.890;8.054;2023-12-07T13:53:50;13.30;;;8.43;;
8952;SDS011;4511;50.890;8.054;2023-12-07T13:56:20;10.63;;;8.23;;
8952;SDS011;4511;50.890;8.054;2023-12-07T13:58:48;11.93;;;8.80;;
8952;SDS011;4511;50.890;8.054;2023-12-07T14:01:16;12.10;;;8.53;;
8952;SDS011;4511;50.890;8.054;2023-12-07T14:03:43;13.67;;;9.67;;
8952;SDS011;4511;50.890;8.054;2023-12-07T14:06:10;10.43;;;8.43;;
8952;SDS011;4511;50.890;8.054;2023-12-07T14:08:39;10.93;;;9.23;;
8952;SDS011;4511;50.890;8.054;2023-12-07T14:11:05;12.37;;;9.23;;
8952;SDS011;4511;50.890;8.054;2023-12-07T14:13:32;12.07;;;9.47;;
8952;SDS011;4511;50.890;8.054;2023-12-07T14:15:59;9.47;;;8.10;;
8952;SDS011;4511;50.890;8.054;2023-12-07T14:18:27;11.40;;;8.40;;
8952;SDS011;4511;50.890;8.054;2023-12-07T14:20:53;11.80;;;9.23;;
8952;SDS011;4511;50.890;8.054;2023-12-07T14:23:21;9.97;;;8.63;;
8952;SDS011;4511;50.890;8.054;2023-12-07T14:25:48;10.57;;;8.57;;
8952;SDS011;4511;50.890;8.054;2023-12-07T14:28:17;10.83;;;8.57;;
8952;SDS011;4511;50.890;8.054;2023-12-07T14:30:44;10.30;;;8.03;;
8952;SDS011;4511;50.890;8.054;2023-12-07T14:33:10;10.47;;;8.60;;
8952;SDS011;4511;50.890;8.054;2023-12-07T14:35:39;12.10;;;9.00;;
8952;SDS011;4511;50.890;8.054;2023-12-07T14:38:05;10.73;;;8.33;;
8952;SDS011;4511;50.890;8.054;2023-12-07T14:40:32;9.87;;;8.67;;
8952;SDS011;4511;50.890;8.054;2023-12-07T14:42:59;11.33;;;8.70;;
8952;SDS011;4511;50.890;8.054;2023-12-07T14:45:26;10.30;;;8.97;;
8952;SDS011;4511;50.890;8.054;2023-12-07T14:47:53;11.87;;;8.77;;
8952;SDS011;4511;50.890;8.054;2023-12-07T14:50:19;11.80;;;8.83;;
8952;SDS011;4511;50.890;8.054;2023-12-07T14:52:48;9.87;;;8.20;;
8952;SDS011;4511;50.890;8.054;2023-12-07T14:55:14;13.30;;;8.80;;
8952;SDS011;4511;50.890;8.054;2023-12-07T14:57:43;9.97;;;8.30;;